createdAt,value
2023-01-27T00:02:16.167Z,13.60
2023-01-27T00:05:20.579Z,13.80
2023-01-27T00:08:23.585Z,15.33
2023-01-27T00:11:44.007Z,14.50
2023-01-27T00:14:46.960Z,15.53
2023-01-27T00:17:49.960Z,14.77
2023-01-27T00:21:12.594Z,13.27
2023-01-27T00:24:33.807Z,14.17
2023-01-27T00:27:37.717Z,13.17
2023-01-27T00:30:40.687Z,13.83
2023-01-27T00:33:45.867Z,13.97
2023-01-27T00:36:52.879Z,14.50
2023-01-27T00:39:55.958Z,14.50
2023-01-27T00:42:59.028Z,13.43
2023-01-27T00:46:02.134Z,14.83
2023-01-27T00:49:05.293Z,15.33
2023-01-27T00:52:09.595Z,15.67
2023-01-27T00:55:15.346Z,15.33
2023-01-27T00:58:18.384Z,15.97
2023-01-27T01:01:22.411Z,16.77
2023-01-27T01:04:26.798Z,15.90
2023-01-27T01:07:31.456Z,16.10
2023-01-27T01:10:37.116Z,16.13
2023-01-27T01:13:40.568Z,15.43
2023-01-27T01:16:43.538Z,16.33
2023-01-27T01:19:52.656Z,15.80
2023-01-27T01:23:00.447Z,15.93
2023-01-27T01:26:03.948Z,16.60
2023-01-27T01:29:07.227Z,16.67
2023-01-27T01:32:10.901Z,14.80
2023-01-27T01:35:14.294Z,15.97
2023-01-27T01:38:18.636Z,15.10
2023-01-27T01:41:22.180Z,15.20
2023-01-27T01:44:28.015Z,15.60
2023-01-27T01:47:31.292Z,16.50
2023-01-27T01:50:36.321Z,14.67
2023-01-27T01:53:48.333Z,14.80
2023-01-27T01:56:57.537Z,14.37
2023-01-27T02:00:07.951Z,14.60
2023-01-27T02:03:17.320Z,16.63
2023-01-27T02:06:21.109Z,15.10
2023-01-27T02:09:25.939Z,15.50
2023-01-27T02:12:29.379Z,15.33
2023-01-27T02:15:33.442Z,16.97
2023-01-27T02:18:36.720Z,16.13
2023-01-27T02:21:39.836Z,15.57
2023-01-27T02:24:53.811Z,15.33
2023-01-27T02:27:58.146Z,15.80
2023-01-27T02:31:03.226Z,13.27
2023-01-27T02:34:12.100Z,14.30
2023-01-27T02:37:16.430Z,14.67
2023-01-27T02:40:20.931Z,13.30
2023-01-27T02:43:25.294Z,13.43
2023-01-27T02:46:28.856Z,14.37
2023-01-27T02:49:41.434Z,13.17
2023-01-27T02:52:45.240Z,14.63
2023-01-27T02:55:48.624Z,13.73
2023-01-27T02:58:55.528Z,13.80
2023-01-27T03:02:04.905Z,14.13
2023-01-27T03:05:08.753Z,14.40
2023-01-27T03:08:12.087Z,15.40
2023-01-27T03:11:35.580Z,15.30
2023-01-27T03:14:58.645Z,14.93
2023-01-27T03:18:13.914Z,14.57
2023-01-27T03:21:18.985Z,14.70
2023-01-27T03:24:23.219Z,15.70
2023-01-27T03:27:29.151Z,13.30
2023-01-27T03:30:52.311Z,13.63
2023-01-27T03:34:00.963Z,14.97
2023-01-27T03:37:33.017Z,14.37
2023-01-27T03:40:53.732Z,14.47
2023-01-27T03:44:14.435Z,15.23
2023-01-27T03:47:18.943Z,15.40
2023-01-27T03:50:31.201Z,13.77
2023-01-27T03:53:34.644Z,13.07
2023-01-27T03:56:37.594Z,13.67
2023-01-27T03:59:40.558Z,13.57
2023-01-27T04:03:02.411Z,13.00
2023-01-27T04:06:24.255Z,15.30
2023-01-27T04:09:30.458Z,12.50
2023-01-27T04:12:32.524Z,15.33
2023-01-27T04:15:35.644Z,13.43
2023-01-27T04:18:39.958Z,13.83
2023-01-27T04:21:43.511Z,14.60
2023-01-27T04:24:50.150Z,14.53
2023-01-27T04:27:53.212Z,13.83
2023-01-27T04:30:56.842Z,13.67
2023-01-27T04:34:01.185Z,14.77
2023-01-27T04:37:04.931Z,14.13
2023-01-27T04:40:10.248Z,13.93
2023-01-27T04:43:13.587Z,14.13
2023-01-27T04:46:16.680Z,14.10
2023-01-27T04:49:21.031Z,13.50
2023-01-27T04:52:24.039Z,13.47
2023-01-27T04:55:27.460Z,13.63
2023-01-27T04:58:30.678Z,11.80
2023-01-27T05:01:36.032Z,12.87
2023-01-27T05:04:40.363Z,12.10
2023-01-27T05:07:43.427Z,11.50
2023-01-27T05:10:46.461Z,11.10
2023-01-27T05:13:49.805Z,10.77
2023-01-27T05:16:55.222Z,11.33
2023-01-27T05:20:00.342Z,10.90
2023-01-27T05:23:21.052Z,11.93
2023-01-27T05:26:26.581Z,10.67
2023-01-27T05:29:29.552Z,10.30
2023-01-27T05:32:32.504Z,11.20
2023-01-27T05:35:36.887Z,11.53
2023-01-27T05:38:40.153Z,11.13
2023-01-27T05:41:43.146Z,11.40
2023-01-27T05:44:46.168Z,10.17
2023-01-27T05:47:54.394Z,10.93
2023-01-27T05:51:00.143Z,10.83
2023-01-27T05:54:03.660Z,11.03
2023-01-27T05:57:06.723Z,11.80
2023-01-27T06:00:11.895Z,10.43
2023-01-27T06:03:18.342Z,10.90
2023-01-27T06:06:24.706Z,12.27
2023-01-27T06:09:27.957Z,12.70
2023-01-27T06:12:30.892Z,11.03
2023-01-27T06:15:35.923Z,12.47
2023-01-27T06:18:39.792Z,13.00
2023-01-27T06:21:44.196Z,10.87
2023-01-27T06:24:47.375Z,11.93
2023-01-27T06:27:50.340Z,11.47
2023-01-27T06:30:53.558Z,10.13
2023-01-27T06:33:57.080Z,12.00
2023-01-27T06:37:01.666Z,10.87
2023-01-27T06:40:05.517Z,10.77
2023-01-27T06:43:14.065Z,10.13
2023-01-27T06:46:17.225Z,11.03
2023-01-27T06:49:27.551Z,10.63
2023-01-27T06:52:35.252Z,12.00
2023-01-27T06:55:41.747Z,10.90
2023-01-27T06:58:45.131Z,10.80
2023-01-27T07:01:57.332Z,12.57
2023-01-27T07:05:00.576Z,12.07
2023-01-27T07:08:04.917Z,12.40
2023-01-27T07:11:08.320Z,12.80
2023-01-27T07:14:11.333Z,11.83
2023-01-27T07:17:15.078Z,12.13
2023-01-27T07:20:19.849Z,13.30
2023-01-27T07:23:24.379Z,12.33
2023-01-27T07:26:27.676Z,11.53
2023-01-27T07:29:31.399Z,13.33
2023-01-27T07:32:34.590Z,13.43
2023-01-27T07:35:39.159Z,12.63
2023-01-27T07:38:43.724Z,13.73
2023-01-27T07:41:50.187Z,13.93
2023-01-27T07:44:53.657Z,12.77
2023-01-27T07:48:02.248Z,13.37
2023-01-27T07:51:05.839Z,12.70
2023-01-27T07:54:10.449Z,13.23
2023-01-27T07:57:13.719Z,14.03
2023-01-27T08:00:18.689Z,14.57
2023-01-27T08:03:24.868Z,13.57
2023-01-27T08:06:28.050Z,13.50
2023-01-27T08:09:35.267Z,13.47
2023-01-27T08:12:38.430Z,13.57
2023-01-27T08:15:41.534Z,12.57
2023-01-27T08:18:44.919Z,12.57
2023-01-27T08:21:48.182Z,12.83
2023-01-27T08:24:55.577Z,14.10
2023-01-27T08:27:59.759Z,12.90
2023-01-27T08:31:08.119Z,12.13
2023-01-27T08:34:12.008Z,13.23
2023-01-27T08:37:15.525Z,12.97
2023-01-27T08:40:20.384Z,12.97
2023-01-27T08:43:23.484Z,13.50
2023-01-27T08:46:27.067Z,12.53
2023-01-27T08:49:30.448Z,14.20
2023-01-27T08:52:33.691Z,13.83
2023-01-27T08:55:38.071Z,13.83
2023-01-27T08:58:52.292Z,14.23
2023-01-27T09:01:55.600Z,14.10
2023-01-27T09:04:59.035Z,13.20
2023-01-27T09:08:02.391Z,12.30
2023-01-27T09:11:16.179Z,12.77
2023-01-27T09:14:22.327Z,11.83
2023-01-27T09:17:26.004Z,12.27
2023-01-27T09:20:29.403Z,11.97
2023-01-27T09:23:34.083Z,11.83
2023-01-27T09:26:38.686Z,11.53
2023-01-27T09:29:43.906Z,10.27
2023-01-27T09:32:47.613Z,11.67
2023-01-27T09:36:00.772Z,10.97
2023-01-27T09:39:08.447Z,9.87
2023-01-27T09:42:42.490Z,11.63
2023-01-27T09:46:12.880Z,11.07
2023-01-27T09:49:40.269Z,11.30
2023-01-27T09:53:12.311Z,11.40
2023-01-27T09:56:23.377Z,11.20
2023-01-27T09:59:55.900Z,11.87
2023-01-27T10:03:26.938Z,10.33
2023-01-27T10:06:50.644Z,11.23
2023-01-27T10:10:09.535Z,11.60
2023-01-27T10:13:25.748Z,11.17
2023-01-27T10:16:52.086Z,11.67
2023-01-27T10:20:16.003Z,10.70
2023-01-27T10:23:38.221Z,11.17
2023-01-27T10:26:44.015Z,10.30
2023-01-27T10:29:52.287Z,9.60
2023-01-27T10:33:08.672Z,8.33
2023-01-27T10:36:27.014Z,8.37
2023-01-27T10:39:44.111Z,8.53
2023-01-27T10:42:56.234Z,9.63
2023-01-27T10:46:10.050Z,7.97
2023-01-27T10:49:24.085Z,9.43
2023-01-27T10:52:34.509Z,8.47
2023-01-27T10:55:54.093Z,8.73
2023-01-27T10:59:05.649Z,9.23
2023-01-27T11:02:20.323Z,7.73
2023-01-27T11:05:34.724Z,9.30
2023-01-27T11:08:42.040Z,8.33
2023-01-27T11:11:47.254Z,6.67
2023-01-27T11:14:56.561Z,7.97
2023-01-27T11:18:28.852Z,6.57
2023-01-27T11:21:37.189Z,5.53
2023-01-27T11:24:49.203Z,4.73
2023-01-27T11:28:06.508Z,5.73
2023-01-27T11:31:23.489Z,5.73
2023-01-27T11:34:34.092Z,6.07
2023-01-27T11:37:41.806Z,6.80
2023-01-27T11:40:46.877Z,6.17
2023-01-27T11:43:50.576Z,6.40
2023-01-27T11:46:57.131Z,5.60
2023-01-27T11:50:04.461Z,6.27
2023-01-27T11:53:18.716Z,6.10
2023-01-27T11:56:25.303Z,6.03
2023-01-27T11:59:32.745Z,5.97
2023-01-27T12:02:44.793Z,6.00
2023-01-27T12:05:58.930Z,5.57
2023-01-27T12:09:31.003Z,5.60
2023-01-27T12:12:38.489Z,5.60
2023-01-27T12:15:49.511Z,5.67
2023-01-27T12:19:01.085Z,6.63
2023-01-27T12:22:12.274Z,6.43
2023-01-27T12:25:23.098Z,7.93
2023-01-27T12:28:31.160Z,7.13
2023-01-27T12:31:47.102Z,5.37
2023-01-27T12:34:56.441Z,5.87
2023-01-27T12:38:03.260Z,7.60
2023-01-27T12:41:10.908Z,6.67
2023-01-27T12:44:23.300Z,5.87
2023-01-27T12:47:35.493Z,6.37
2023-01-27T12:50:41.170Z,6.43
2023-01-27T12:53:44.742Z,7.33
2023-01-27T12:56:50.220Z,8.13
2023-01-27T12:59:57.595Z,7.93
2023-01-27T13:03:08.119Z,7.57
2023-01-27T13:06:16.746Z,7.80
2023-01-27T13:09:28.384Z,8.00
2023-01-27T13:12:52.522Z,7.13
2023-01-27T13:15:59.186Z,8.63
2023-01-27T13:19:02.743Z,8.47
2023-01-27T13:22:17.694Z,8.20
2023-01-27T13:25:27.421Z,8.00
2023-01-27T13:28:52.173Z,8.60
2023-01-27T13:32:07.142Z,8.17
2023-01-27T13:35:23.433Z,7.83
2023-01-27T13:38:35.862Z,7.63
2023-01-27T13:41:45.876Z,6.70
2023-01-27T13:44:58.006Z,7.87
2023-01-27T13:48:06.069Z,7.90
2023-01-27T13:51:12.676Z,6.90
2023-01-27T13:54:16.585Z,7.90
2023-01-27T13:57:39.999Z,6.47
2023-01-27T14:00:54.441Z,7.80
2023-01-27T14:04:28.749Z,6.83
2023-01-27T14:07:43.815Z,8.07
2023-01-27T14:11:02.461Z,6.80
2023-01-27T14:14:24.510Z,7.63
2023-01-27T14:17:40.834Z,6.37
2023-01-27T14:20:59.960Z,7.00
2023-01-27T14:24:13.568Z,8.00
2023-01-27T14:27:26.697Z,8.53
2023-01-27T14:30:37.750Z,7.33
2023-01-27T14:34:01.721Z,5.17
2023-01-27T14:37:16.443Z,6.33
2023-01-27T14:40:24.660Z,6.67
2023-01-27T14:43:38.445Z,6.57
2023-01-27T14:46:57.408Z,6.87
2023-01-27T14:50:15.886Z,5.90
2023-01-27T14:53:42.460Z,6.13
2023-01-27T14:57:05.963Z,5.50
2023-01-27T15:00:28.777Z,4.97
2023-01-27T15:03:52.196Z,4.97
2023-01-27T15:07:03.942Z,5.30
2023-01-27T15:10:22.906Z,5.37
2023-01-27T15:13:56.420Z,5.87
2023-01-27T15:17:22.094Z,4.30
2023-01-27T15:20:54.526Z,4.67
2023-01-27T15:24:18.062Z,4.90
2023-01-27T15:27:23.397Z,4.73
2023-01-27T15:30:29.429Z,5.27
2023-01-27T15:33:54.039Z,4.73
2023-01-27T15:37:03.128Z,5.40
2023-01-27T15:40:17.650Z,4.73
2023-01-27T15:43:22.877Z,4.27
2023-01-27T15:46:34.933Z,4.63
2023-01-27T15:49:42.994Z,4.90
2023-01-27T15:52:47.992Z,4.57
2023-01-27T15:55:55.731Z,4.70
2023-01-27T15:59:04.944Z,5.00
2023-01-27T16:02:17.858Z,5.30
2023-01-27T16:05:27.171Z,4.83
2023-01-27T16:08:33.199Z,5.63
2023-01-27T16:11:44.020Z,5.33
2023-01-27T16:14:47.535Z,4.90
2023-01-27T16:18:26.247Z,4.50
2023-01-27T16:21:49.466Z,4.57
2023-01-27T16:24:56.758Z,4.87
2023-01-27T16:28:09.837Z,5.30
2023-01-27T16:31:22.802Z,5.60
2023-01-27T16:34:33.394Z,4.63
2023-01-27T16:37:39.442Z,5.10
2023-01-27T16:40:50.545Z,6.07
2023-01-27T16:43:58.955Z,5.40
2023-01-27T16:47:16.563Z,6.83
2023-01-27T16:50:36.407Z,5.03
2023-01-27T16:53:44.036Z,6.10
2023-01-27T16:56:51.866Z,7.43
2023-01-27T16:59:59.641Z,5.00
2023-01-27T17:03:09.532Z,6.23
2023-01-27T17:06:17.007Z,7.03
2023-01-27T17:09:26.027Z,6.70
2023-01-27T17:12:35.353Z,5.53
2023-01-27T17:15:41.589Z,6.00
2023-01-27T17:18:52.627Z,5.17
2023-01-27T17:21:59.187Z,5.83
2023-01-27T17:25:10.842Z,5.13
2023-01-27T17:28:21.277Z,5.30
2023-01-27T17:31:26.261Z,5.07
2023-01-27T17:34:29.562Z,7.97
2023-01-27T17:37:33.405Z,6.17
2023-01-27T17:40:41.155Z,5.33
2023-01-27T17:43:45.843Z,5.47
2023-01-27T17:46:50.379Z,5.07
2023-01-27T17:49:53.400Z,5.33
2023-01-27T17:52:57.531Z,5.70
2023-01-27T17:56:01.702Z,5.90
2023-01-27T17:59:10.340Z,6.57
2023-01-27T18:02:23.444Z,5.37
2023-01-27T18:05:31.774Z,5.07
2023-01-27T18:08:36.031Z,4.97
2023-01-27T18:11:39.121Z,5.30
2023-01-27T18:14:42.302Z,5.77
2023-01-27T18:17:59.278Z,4.90
2023-01-27T18:21:07.659Z,4.43
2023-01-27T18:24:20.980Z,4.87
2023-01-27T18:27:31.353Z,4.70
2023-01-27T18:30:34.731Z,5.33
2023-01-27T18:33:41.662Z,5.73
2023-01-27T18:36:54.559Z,5.13
2023-01-27T18:40:00.097Z,5.17
2023-01-27T18:43:05.593Z,5.17
2023-01-27T18:46:11.712Z,4.90
2023-01-27T18:49:16.101Z,5.90
2023-01-27T18:52:19.198Z,5.57
2023-01-27T18:55:24.562Z,5.30
2023-01-27T18:58:27.546Z,5.70
2023-01-27T19:01:30.813Z,5.27
2023-01-27T19:04:35.274Z,5.70
2023-01-27T19:07:38.380Z,5.43
2023-01-27T19:10:41.624Z,5.63
2023-01-27T19:13:45.718Z,5.70
2023-01-27T19:16:48.663Z,6.17
2023-01-27T19:19:52.981Z,5.93
2023-01-27T19:22:57.828Z,6.40
2023-01-27T19:26:06.546Z,6.80
2023-01-27T19:29:13.736Z,5.77
2023-01-27T19:32:17.357Z,6.67
2023-01-27T19:35:22.647Z,7.27
2023-01-27T19:38:28.756Z,6.93
2023-01-27T19:41:31.899Z,6.10
2023-01-27T19:44:35.135Z,6.60
2023-01-27T19:47:38.122Z,6.87
2023-01-27T19:50:42.658Z,6.80
2023-01-27T19:53:46.188Z,6.83
2023-01-27T19:56:49.404Z,6.87
2023-01-27T19:59:55.216Z,7.43
2023-01-27T20:02:58.743Z,6.70
2023-01-27T20:06:03.818Z,6.73
2023-01-27T20:09:06.816Z,6.60
2023-01-27T20:12:14.388Z,7.03
2023-01-27T20:15:19.136Z,7.33
2023-01-27T20:18:24.003Z,6.70
2023-01-27T20:21:31.345Z,6.40
2023-01-27T20:24:36.434Z,7.03
2023-01-27T20:27:39.523Z,6.23
2023-01-27T20:30:42.973Z,6.80
2023-01-27T20:33:49.863Z,6.60
2023-01-27T20:36:54.160Z,6.17
2023-01-27T20:39:57.241Z,5.93
2023-01-27T20:43:02.274Z,7.60
2023-01-27T20:46:06.224Z,6.77
2023-01-27T20:49:09.216Z,5.97
2023-01-27T20:52:13.493Z,6.03
2023-01-27T20:55:19.278Z,6.10
2023-01-27T20:58:22.348Z,6.87
2023-01-27T21:01:25.466Z,6.27
2023-01-27T21:04:28.840Z,6.40
2023-01-27T21:07:33.164Z,5.87
2023-01-27T21:10:36.343Z,5.93
2023-01-27T21:13:39.636Z,6.23
2023-01-27T21:16:42.722Z,6.63
2023-01-27T21:19:45.746Z,6.57
2023-01-27T21:22:51.406Z,5.50
2023-01-27T21:25:55.407Z,6.20
2023-01-27T21:28:58.366Z,5.90
2023-01-27T21:32:01.565Z,6.50
2023-01-27T21:35:05.251Z,5.57
2023-01-27T21:38:09.748Z,5.57
2023-01-27T21:41:36.580Z,6.30
2023-01-27T21:44:59.164Z,5.80
2023-01-27T21:48:02.347Z,6.23
2023-01-27T21:51:05.522Z,6.27
2023-01-27T21:54:10.242Z,6.20
2023-01-27T21:57:13.215Z,5.53
2023-01-27T22:00:19.955Z,6.10
2023-01-27T22:03:23.933Z,6.13
2023-01-27T22:06:27.417Z,6.20
2023-01-27T22:09:31.783Z,5.90
2023-01-27T22:12:35.873Z,6.30
2023-01-27T22:15:38.878Z,6.50
2023-01-27T22:18:42.185Z,6.00
2023-01-27T22:21:45.806Z,6.17
2023-01-27T22:24:50.109Z,6.93
2023-01-27T22:27:55.331Z,6.53
2023-01-27T22:31:02.382Z,6.60
2023-01-27T22:34:05.666Z,6.83
2023-01-27T22:37:08.654Z,7.20
2023-01-27T22:40:14.291Z,6.63
2023-01-27T22:43:17.240Z,6.63
2023-01-27T22:46:20.240Z,6.97
2023-01-27T22:49:23.673Z,6.80
2023-01-27T22:52:27.108Z,7.40
2023-01-27T22:55:31.452Z,6.53
2023-01-27T22:58:37.855Z,6.47
2023-01-27T23:01:41.141Z,7.10
2023-01-27T23:04:48.564Z,7.77
2023-01-27T23:07:51.818Z,7.90
2023-01-27T23:11:01.314Z,8.03
2023-01-27T23:14:04.628Z,8.80
2023-01-27T23:17:07.877Z,8.50
2023-01-27T23:20:12.875Z,8.03
2023-01-27T23:23:17.068Z,6.73
2023-01-27T23:26:21.508Z,7.70
2023-01-27T23:29:26.431Z,7.53
2023-01-27T23:32:30.220Z,8.93
2023-01-27T23:35:33.333Z,8.30
2023-01-27T23:38:37.052Z,7.30
2023-01-27T23:41:41.343Z,7.83
2023-01-27T23:44:44.401Z,7.40
2023-01-27T23:47:47.382Z,8.23
2023-01-27T23:50:51.811Z,7.83
2023-01-27T23:53:55.415Z,8.27
2023-01-27T23:56:59.964Z,6.70
